createdAt,value
2018-07-26T00:00:42.494Z,23.80
2018-07-26T00:03:10.582Z,23.70
2018-07-26T00:05:38.978Z,23.70
2018-07-26T00:08:07.063Z,23.80
2018-07-26T00:10:35.136Z,23.70
2018-07-26T00:13:03.444Z,23.80
2018-07-26T00:15:31.509Z,23.70
2018-07-26T00:17:59.571Z,23.70
2018-07-26T00:20:27.638Z,23.60
2018-07-26T00:22:55.888Z,23.60
2018-07-26T00:25:23.954Z,23.60
2018-07-26T00:27:52.110Z,23.60
2018-07-26T00:30:20.240Z,23.50
2018-07-26T00:32:48.314Z,23.40
2018-07-26T00:35:16.675Z,23.40
2018-07-26T00:37:44.746Z,23.40
2018-07-26T00:40:12.839Z,23.30
2018-07-26T00:42:41.187Z,23.30
2018-07-26T00:45:09.262Z,23.30
2018-07-26T00:47:37.332Z,23.20
2018-07-26T00:50:05.713Z,23.20
2018-07-26T00:52:33.798Z,23.20
2018-07-26T00:55:01.874Z,23.20
2018-07-26T00:57:29.942Z,23.20
2018-07-26T00:59:58.044Z,23.20
2018-07-26T01:02:26.107Z,23.10
2018-07-26T01:04:54.467Z,23.00
2018-07-26T01:07:22.509Z,23.00
2018-07-26T01:09:50.612Z,23.00
2018-07-26T01:12:18.962Z,22.90
2018-07-26T01:14:47.260Z,22.90
2018-07-26T01:17:15.292Z,22.90
2018-07-26T01:19:43.342Z,22.80
2018-07-26T01:24:39.250Z,22.80
2018-07-26T01:27:07.694Z,22.70
2018-07-26T01:29:35.783Z,22.60
2018-07-26T01:32:03.865Z,22.60
2018-07-26T01:34:32.232Z,22.50
2018-07-26T01:37:00.354Z,22.50
2018-07-26T01:39:28.426Z,22.40
2018-07-26T01:41:56.519Z,22.40
2018-07-26T01:44:25.610Z,22.40
2018-07-26T01:46:53.681Z,22.30
2018-07-26T01:49:21.776Z,22.30
2018-07-26T01:51:49.830Z,22.30
2018-07-26T01:54:17.956Z,22.30
2018-07-26T01:56:46.306Z,22.30
2018-07-26T01:59:14.398Z,22.40
2018-07-26T02:01:42.530Z,22.20
2018-07-26T02:04:10.830Z,22.20
2018-07-26T02:06:38.957Z,22.20
2018-07-26T02:09:08.734Z,22.20
2018-07-26T02:11:37.207Z,22.20
2018-07-26T02:14:05.518Z,22.20
2018-07-26T02:16:33.660Z,22.10
2018-07-26T02:19:02.134Z,22.10
2018-07-26T02:21:30.210Z,22.00
2018-07-26T02:23:58.298Z,22.00
2018-07-26T02:26:26.386Z,21.90
2018-07-26T02:28:54.550Z,22.00
2018-07-26T02:31:22.684Z,21.90
2018-07-26T02:33:51.076Z,21.90
2018-07-26T02:36:19.169Z,21.90
2018-07-26T02:38:47.246Z,21.80
2018-07-26T02:41:15.353Z,21.80
2018-07-26T02:43:43.436Z,21.70
2018-07-26T02:46:11.528Z,21.70
2018-07-26T02:48:39.634Z,21.60
2018-07-26T02:51:07.728Z,21.50
2018-07-26T02:53:35.806Z,21.50
2018-07-26T02:56:04.228Z,21.50
2018-07-26T02:58:32.326Z,21.50
2018-07-26T03:01:00.490Z,21.40
2018-07-26T03:03:28.602Z,21.40
2018-07-26T03:05:56.690Z,21.40
2018-07-26T03:08:24.778Z,21.50
2018-07-26T03:10:53.002Z,21.50
2018-07-26T03:13:21.127Z,21.50
2018-07-26T03:15:49.210Z,21.50
2018-07-26T03:18:17.594Z,21.40
2018-07-26T03:20:45.685Z,21.40
2018-07-26T03:23:13.752Z,21.40
2018-07-26T03:25:41.838Z,21.30
2018-07-26T03:28:09.903Z,21.30
2018-07-26T03:30:37.973Z,21.30
2018-07-26T03:33:06.051Z,21.30
2018-07-26T03:35:34.146Z,21.30
2018-07-26T03:38:02.258Z,21.20
2018-07-26T03:40:30.653Z,21.20
2018-07-26T03:42:58.748Z,21.30
2018-07-26T03:45:26.826Z,21.30
2018-07-26T03:47:55.238Z,21.20
2018-07-26T03:50:23.308Z,21.20
2018-07-26T03:52:51.450Z,21.10
2018-07-26T03:55:19.862Z,21.10
2018-07-26T03:57:48.059Z,21.10
2018-07-26T04:00:16.102Z,21.00
2018-07-26T04:02:44.530Z,21.00
2018-07-26T04:05:12.606Z,21.00
2018-07-26T04:07:40.690Z,21.00
2018-07-26T04:10:08.768Z,21.00
2018-07-26T04:12:36.849Z,21.00
2018-07-26T04:15:05.506Z,21.00
2018-07-26T04:17:33.594Z,21.00
2018-07-26T04:20:01.766Z,21.00
2018-07-26T04:22:29.738Z,21.00
2018-07-26T04:24:58.095Z,21.10
2018-07-26T04:27:26.172Z,21.00
2018-07-26T04:29:54.247Z,21.00
2018-07-26T04:32:22.346Z,20.90
2018-07-26T04:34:50.418Z,20.90
2018-07-26T04:37:18.486Z,20.90
2018-07-26T04:39:46.884Z,20.80
2018-07-26T04:42:14.918Z,20.80
2018-07-26T04:44:43.002Z,20.80
2018-07-26T04:47:11.330Z,20.80
2018-07-26T04:49:39.454Z,20.90
2018-07-26T04:52:07.518Z,20.80
2018-07-26T04:54:35.653Z,20.80
2018-07-26T04:57:03.723Z,20.90
2018-07-26T04:59:31.804Z,20.90
2018-07-26T05:02:00.195Z,20.90
2018-07-26T05:04:28.278Z,20.80
2018-07-26T05:06:56.422Z,20.80
2018-07-26T05:09:24.510Z,20.90
2018-07-26T05:11:52.616Z,20.90
2018-07-26T05:14:20.682Z,21.00
2018-07-26T05:16:49.031Z,21.00
2018-07-26T05:19:17.116Z,21.00
2018-07-26T05:21:45.215Z,21.10
2018-07-26T05:24:13.290Z,21.10
2018-07-26T05:26:41.373Z,21.10
2018-07-26T05:29:09.462Z,21.20
2018-07-26T05:34:05.683Z,21.30
2018-07-26T05:36:33.803Z,21.30
2018-07-26T05:39:01.879Z,21.40
2018-07-26T05:41:30.082Z,21.40
2018-07-26T05:43:58.227Z,21.50
2018-07-26T05:46:26.718Z,21.50
2018-07-26T05:48:54.821Z,21.60
2018-07-26T05:51:22.890Z,21.60
2018-07-26T05:53:50.999Z,21.70
2018-07-26T05:56:19.105Z,21.80
2018-07-26T05:58:47.258Z,21.80
2018-07-26T06:01:15.662Z,21.80
2018-07-26T06:03:43.777Z,21.90
2018-07-26T06:06:11.875Z,22.00
2018-07-26T06:08:40.290Z,22.00
2018-07-26T06:11:08.378Z,22.10
2018-07-26T06:13:36.468Z,22.10
2018-07-26T06:16:04.806Z,22.20
2018-07-26T06:18:32.887Z,22.20
2018-07-26T06:21:00.958Z,22.30
2018-07-26T06:23:29.482Z,22.30
2018-07-26T06:25:57.547Z,22.40
2018-07-26T06:28:25.635Z,22.40
2018-07-26T06:33:21.787Z,22.60
2018-07-26T06:35:49.814Z,22.70
2018-07-26T06:38:17.899Z,22.80
2018-07-26T06:40:45.967Z,22.80
2018-07-26T06:43:14.052Z,22.90
2018-07-26T06:45:42.459Z,23.00
2018-07-26T06:48:10.534Z,23.00
2018-07-26T06:50:38.640Z,23.10
2018-07-26T06:53:07.130Z,23.30
2018-07-26T06:55:35.146Z,23.40
2018-07-26T06:58:03.279Z,23.50
2018-07-26T07:00:31.595Z,23.60
2018-07-26T07:02:59.682Z,23.70
2018-07-26T07:05:27.761Z,23.80
2018-07-26T07:07:56.227Z,23.90
2018-07-26T07:10:24.295Z,24.00
2018-07-26T07:12:52.762Z,24.10
2018-07-26T07:15:21.148Z,24.30
2018-07-26T07:17:49.227Z,24.30
2018-07-26T07:20:17.318Z,24.50
2018-07-26T07:22:45.447Z,24.50
2018-07-26T07:25:13.520Z,24.70
2018-07-26T07:27:41.655Z,24.70
2018-07-26T07:30:11.543Z,24.90
2018-07-26T07:32:40.128Z,25.00
2018-07-26T07:35:08.237Z,25.10
2018-07-26T07:40:05.379Z,25.30
2018-07-26T07:42:33.542Z,25.40
2018-07-26T07:45:01.905Z,25.60
2018-07-26T07:47:30.014Z,25.70
2018-07-26T07:49:58.137Z,25.80
2018-07-26T07:52:26.234Z,25.90
2018-07-26T07:54:54.318Z,26.10
2018-07-26T07:57:22.378Z,26.10
2018-07-26T07:59:50.853Z,26.10
2018-07-26T08:02:18.958Z,26.20
2018-07-26T08:04:47.047Z,26.40
2018-07-26T08:07:15.814Z,26.50
2018-07-26T08:09:44.077Z,26.70
2018-07-26T08:12:12.170Z,26.80
2018-07-26T08:14:40.637Z,27.00
2018-07-26T08:17:10.842Z,27.10
2018-07-26T08:19:38.934Z,27.20
2018-07-26T08:22:07.361Z,27.30
2018-07-26T08:24:35.506Z,27.50
2018-07-26T08:27:03.715Z,27.50
2018-07-26T08:29:32.217Z,27.60
2018-07-26T08:32:00.241Z,27.70
2018-07-26T08:34:28.334Z,27.90
2018-07-26T08:36:56.447Z,28.00
2018-07-26T08:39:24.540Z,28.10
2018-07-26T08:41:52.646Z,28.30
2018-07-26T08:44:21.347Z,28.40
2018-07-26T08:46:49.414Z,28.50
2018-07-26T08:51:45.710Z,28.70
2018-07-26T08:54:14.049Z,28.80
2018-07-26T08:56:42.506Z,28.90
2018-07-26T09:04:07.567Z,29.20
2018-07-26T09:06:35.662Z,29.30
2018-07-26T09:09:06.162Z,29.40
2018-07-26T09:11:34.264Z,29.60
2018-07-26T09:14:02.573Z,29.70
2018-07-26T09:16:30.713Z,29.90
2018-07-26T09:18:58.858Z,30.00
2018-07-26T09:21:27.225Z,30.00
2018-07-26T09:23:55.298Z,30.20
2018-07-26T09:26:23.732Z,30.20
2018-07-26T09:28:52.027Z,30.30
2018-07-26T09:31:20.092Z,30.40
2018-07-26T09:33:48.213Z,30.60
2018-07-26T09:36:17.043Z,30.70
2018-07-26T09:38:45.112Z,30.80
2018-07-26T09:41:14.172Z,30.90
2018-07-26T09:43:43.156Z,31.10
2018-07-26T09:46:11.207Z,31.20
2018-07-26T09:51:07.932Z,31.40
2018-07-26T09:53:36.004Z,31.60
2018-07-26T09:56:04.086Z,31.70
2018-07-26T09:58:32.460Z,31.80
2018-07-26T10:01:05.930Z,31.90
2018-07-26T10:03:34.011Z,32.00
2018-07-26T10:06:02.107Z,32.10
2018-07-26T10:08:30.222Z,32.20
2018-07-26T10:10:58.650Z,32.40
2018-07-26T10:13:26.855Z,32.50
2018-07-26T10:15:54.998Z,32.60
2018-07-26T10:18:22.998Z,32.70
2018-07-26T10:20:51.261Z,32.80
2018-07-26T10:23:19.374Z,33.00
2018-07-26T10:25:47.803Z,33.10
2018-07-26T10:28:15.882Z,33.20
2018-07-26T10:30:43.957Z,33.20
2018-07-26T10:33:12.328Z,33.40
2018-07-26T10:35:40.426Z,33.50
2018-07-26T10:38:08.538Z,33.60
2018-07-26T10:40:36.942Z,33.90
2018-07-26T10:43:05.064Z,33.90
2018-07-26T10:45:33.184Z,34.00
2018-07-26T10:48:01.559Z,34.10
2018-07-26T10:50:29.737Z,34.20
2018-07-26T10:52:57.890Z,34.30
2018-07-26T10:55:26.291Z,34.40
2018-07-26T10:57:54.403Z,34.50
2018-07-26T11:02:50.347Z,34.80
2018-07-26T11:05:18.415Z,34.80
2018-07-26T11:07:46.573Z,35.00
2018-07-26T11:10:14.870Z,35.10
2018-07-26T11:12:42.950Z,35.20
2018-07-26T11:15:15.224Z,35.30
2018-07-26T11:17:43.230Z,35.40
2018-07-26T11:20:11.318Z,35.60
2018-07-26T11:22:39.409Z,35.70
2018-07-26T11:25:07.484Z,35.80
2018-07-26T11:27:35.646Z,35.80
2018-07-26T11:30:04.192Z,35.90
2018-07-26T11:32:32.215Z,35.90
2018-07-26T11:35:00.298Z,35.90
2018-07-26T11:37:28.391Z,35.90
2018-07-26T11:39:56.489Z,35.90
2018-07-26T11:42:24.574Z,36.00
2018-07-26T11:44:52.738Z,36.00
2018-07-26T11:47:20.912Z,36.10
2018-07-26T11:49:48.991Z,36.20
2018-07-26T11:52:17.531Z,36.10
2018-07-26T11:54:45.635Z,36.10
2018-07-26T11:57:13.741Z,36.10
2018-07-26T11:59:42.118Z,36.20
2018-07-26T12:02:10.211Z,36.40
2018-07-26T12:04:38.294Z,36.40
2018-07-26T12:09:34.853Z,36.50
2018-07-26T12:12:02.991Z,36.60
2018-07-26T12:14:31.067Z,36.50
2018-07-26T12:16:59.500Z,36.60
2018-07-26T12:19:27.746Z,36.70
2018-07-26T12:21:56.178Z,36.70
2018-07-26T12:24:24.345Z,36.70
2018-07-26T12:26:52.556Z,36.70
2018-07-26T12:29:20.906Z,36.70
2018-07-26T12:31:48.978Z,36.80
2018-07-26T12:34:17.050Z,36.90
2018-07-26T12:36:45.432Z,36.90
2018-07-26T12:39:14.646Z,36.90
2018-07-26T12:41:42.782Z,36.90
2018-07-26T12:44:11.210Z,37.00
2018-07-26T12:46:39.306Z,37.10
2018-07-26T12:49:07.410Z,37.00
2018-07-26T12:51:35.506Z,37.10
2018-07-26T12:54:03.659Z,37.20
2018-07-26T12:56:31.737Z,37.20
2018-07-26T12:59:00.122Z,37.20
2018-07-26T13:01:28.234Z,37.00
2018-07-26T13:03:56.805Z,36.90
2018-07-26T13:06:24.895Z,37.10
2018-07-26T13:08:53.468Z,37.10
2018-07-26T13:11:21.562Z,37.20
2018-07-26T13:13:49.683Z,37.30
2018-07-26T13:16:17.950Z,37.40
2018-07-26T13:18:46.012Z,37.40
2018-07-26T13:21:14.100Z,37.40
2018-07-26T13:23:42.214Z,37.50
2018-07-26T13:28:38.629Z,37.60
2018-07-26T13:31:07.046Z,37.50
2018-07-26T13:33:35.138Z,37.60
2018-07-26T13:36:03.560Z,37.70
2018-07-26T13:38:31.623Z,37.70
2018-07-26T13:40:59.745Z,37.80
2018-07-26T13:43:28.095Z,37.80
2018-07-26T13:45:56.219Z,37.80
2018-07-26T13:53:20.429Z,38.00
2018-07-26T13:55:48.502Z,38.10
2018-07-26T13:58:16.862Z,38.20
2018-07-26T14:00:44.959Z,38.40
2018-07-26T14:03:13.026Z,38.60
2018-07-26T14:05:41.458Z,38.60
2018-07-26T14:08:09.669Z,38.60
2018-07-26T14:10:37.747Z,38.70
2018-07-26T14:13:06.094Z,38.50
2018-07-26T14:15:34.220Z,38.50
2018-07-26T14:18:03.129Z,38.60
2018-07-26T14:20:31.268Z,38.60
2018-07-26T14:22:59.551Z,38.70
2018-07-26T14:25:28.132Z,38.70
2018-07-26T14:27:57.640Z,38.70
2018-07-26T14:30:25.763Z,39.00
2018-07-26T14:32:54.135Z,39.10
2018-07-26T14:35:22.906Z,39.10
2018-07-26T14:37:50.994Z,39.40
2018-07-26T14:40:19.067Z,39.60
2018-07-26T14:42:47.445Z,39.70
2018-07-26T14:45:15.523Z,39.90
2018-07-26T14:47:44.731Z,40.00
2018-07-26T14:50:13.415Z,40.30
2018-07-26T14:52:41.596Z,40.50
2018-07-26T14:55:09.682Z,40.50
2018-07-26T14:57:37.994Z,40.50
2018-07-26T15:00:06.050Z,40.50
2018-07-26T15:02:34.129Z,40.20
2018-07-26T15:05:02.532Z,39.90
2018-07-26T15:07:30.594Z,39.60
2018-07-26T15:09:58.686Z,39.60
2018-07-26T15:12:27.006Z,39.70
2018-07-26T15:14:55.095Z,39.90
2018-07-26T15:17:23.374Z,40.20
2018-07-26T15:19:51.809Z,40.30
2018-07-26T15:22:20.184Z,40.40
2018-07-26T15:24:48.394Z,40.60
2018-07-26T15:27:16.837Z,40.70
2018-07-26T15:29:44.909Z,40.70
2018-07-26T15:32:12.970Z,40.70
2018-07-26T15:34:41.076Z,40.70
2018-07-26T15:37:09.182Z,40.60
2018-07-26T15:39:37.239Z,40.90
2018-07-26T15:42:05.595Z,41.20
2018-07-26T15:44:33.719Z,41.30
2018-07-26T15:47:01.866Z,41.30
2018-07-26T15:49:30.115Z,41.30
2018-07-26T15:51:58.227Z,41.20
2018-07-26T15:54:26.330Z,41.40
2018-07-26T15:56:54.659Z,41.50
2018-07-26T15:59:22.754Z,41.70
2018-07-26T16:01:50.827Z,41.40
2018-07-26T16:04:18.954Z,41.30
2018-07-26T16:06:47.087Z,41.60
2018-07-26T16:09:15.184Z,41.80
2018-07-26T16:11:44.200Z,42.00
2018-07-26T16:16:40.903Z,42.10
2018-07-26T16:19:09.299Z,42.30
2018-07-26T16:21:38.916Z,42.40
2018-07-26T16:24:07.185Z,42.60
2018-07-26T16:26:35.571Z,42.80
2018-07-26T16:29:03.728Z,42.80
2018-07-26T16:31:31.824Z,42.90
2018-07-26T16:34:00.196Z,43.30
2018-07-26T16:36:28.286Z,43.50
2018-07-26T16:38:56.378Z,43.40
2018-07-26T16:41:24.691Z,43.50
2018-07-26T16:43:52.754Z,43.80
2018-07-26T16:46:20.858Z,43.90
2018-07-26T16:48:49.238Z,43.60
2018-07-26T16:51:17.321Z,43.40
2018-07-26T16:53:45.454Z,42.50
2018-07-26T16:56:13.871Z,41.70
2018-07-26T16:58:42.202Z,41.00
2018-07-26T17:01:10.235Z,40.30
2018-07-26T17:03:38.697Z,39.70
2018-07-26T17:06:06.769Z,39.40
2018-07-26T17:08:34.847Z,39.00
2018-07-26T17:11:03.292Z,38.70
2018-07-26T17:13:31.398Z,38.40
2018-07-26T17:15:59.562Z,38.20
2018-07-26T17:18:27.944Z,37.90
2018-07-26T17:20:56.008Z,37.80
2018-07-26T17:23:24.357Z,37.60
2018-07-26T17:25:52.459Z,37.60
2018-07-26T17:28:20.583Z,37.40
2018-07-26T17:30:48.674Z,37.40
2018-07-26T17:33:16.762Z,37.40
2018-07-26T17:35:44.951Z,37.30
2018-07-26T17:38:12.944Z,37.10
2018-07-26T17:40:41.415Z,37.00
2018-07-26T17:43:09.860Z,36.90
2018-07-26T17:45:38.032Z,36.90
2018-07-26T17:48:06.400Z,36.80
2018-07-26T17:50:34.481Z,36.70
2018-07-26T17:53:02.668Z,36.60
2018-07-26T17:57:58.850Z,36.50
2018-07-26T18:00:26.975Z,36.40
2018-07-26T18:02:55.543Z,36.10
2018-07-26T18:05:23.641Z,35.50
2018-07-26T18:07:52.937Z,35.20
2018-07-26T18:10:21.288Z,34.70
2018-07-26T18:12:49.455Z,34.50
2018-07-26T18:15:17.559Z,34.10
2018-07-26T18:17:46.285Z,33.80
2018-07-26T18:20:14.384Z,33.50
2018-07-26T18:22:42.472Z,33.40
2018-07-26T18:25:10.860Z,33.20
2018-07-26T18:30:07.815Z,33.10
2018-07-26T18:32:35.911Z,33.00
2018-07-26T18:35:04.320Z,33.00
2018-07-26T18:37:32.407Z,33.00
2018-07-26T18:40:00.746Z,33.00
2018-07-26T18:42:29.067Z,32.90
2018-07-26T18:44:57.505Z,33.00
2018-07-26T18:47:25.866Z,33.00
2018-07-26T18:49:53.959Z,32.90
2018-07-26T18:52:22.090Z,32.80
2018-07-26T18:54:50.480Z,32.80
2018-07-26T18:57:18.562Z,32.80
2018-07-26T18:59:46.635Z,32.80
2018-07-26T19:02:15.061Z,32.80
2018-07-26T19:04:43.214Z,32.60
2018-07-26T19:07:11.402Z,32.50
2018-07-26T19:09:39.521Z,32.50
2018-07-26T19:12:07.586Z,32.40
2018-07-26T19:14:35.653Z,32.20
2018-07-26T19:17:04.247Z,32.20
2018-07-26T19:19:32.322Z,32.20
2018-07-26T19:22:00.722Z,32.30
2018-07-26T19:24:29.078Z,32.40
2018-07-26T19:26:57.195Z,32.50
2018-07-26T19:29:25.326Z,32.60
2018-07-26T19:31:53.699Z,32.30
2018-07-26T19:34:22.198Z,32.10
2018-07-26T19:36:50.282Z,31.90
2018-07-26T19:39:18.588Z,31.70
2018-07-26T19:41:47.933Z,31.60
2018-07-26T19:44:16.079Z,31.30
2018-07-26T19:46:44.378Z,31.30
2018-07-26T19:49:12.515Z,31.10
2018-07-26T19:51:40.624Z,31.00
2018-07-26T19:54:09.027Z,31.10
2018-07-26T19:56:37.135Z,31.00
2018-07-26T19:59:05.231Z,31.00
2018-07-26T20:01:33.638Z,31.00
2018-07-26T20:04:01.723Z,31.00
2018-07-26T20:06:29.773Z,31.00
2018-07-26T20:08:57.941Z,31.10
2018-07-26T20:11:26.043Z,31.00
2018-07-26T20:13:54.134Z,31.00
2018-07-26T20:16:22.207Z,31.00
2018-07-26T20:18:50.339Z,31.00
2018-07-26T20:21:18.416Z,31.00
2018-07-26T20:23:46.894Z,31.10
2018-07-26T20:26:14.970Z,31.10
2018-07-26T20:28:43.054Z,31.10
2018-07-26T20:31:11.446Z,31.10
2018-07-26T20:33:39.517Z,31.20
2018-07-26T20:36:07.634Z,31.20
2018-07-26T20:38:36.060Z,31.10
2018-07-26T20:41:04.160Z,31.00
2018-07-26T20:43:32.279Z,30.70
2018-07-26T20:46:00.670Z,30.50
2018-07-26T20:48:28.886Z,30.40
2018-07-26T20:50:57.024Z,30.30
2018-07-26T20:53:25.351Z,30.20
2018-07-26T20:55:53.458Z,30.20
2018-07-26T21:00:49.464Z,30.20
2018-07-26T21:03:17.563Z,30.10
2018-07-26T21:05:45.642Z,30.10
2018-07-26T21:08:13.752Z,30.10
2018-07-26T21:10:41.827Z,30.20
2018-07-26T21:13:10.197Z,30.10
2018-07-26T21:18:06.687Z,30.00
2018-07-26T21:20:35.182Z,29.90
2018-07-26T21:23:08.110Z,29.90
2018-07-26T21:25:36.938Z,29.70
2018-07-26T21:28:06.184Z,29.60
2018-07-26T21:30:34.633Z,29.50
2018-07-26T21:33:02.896Z,29.50
2018-07-26T21:35:31.015Z,29.50
2018-07-26T21:37:59.367Z,29.50
2018-07-26T21:40:27.539Z,29.50
2018-07-26T21:42:57.483Z,29.40
2018-07-26T21:47:54.255Z,29.30
2018-07-26T21:50:24.809Z,29.20
2018-07-26T21:52:52.986Z,29.20
2018-07-26T21:55:21.612Z,29.20
2018-07-26T22:00:18.112Z,29.30
2018-07-26T22:02:46.295Z,29.20
2018-07-26T22:05:14.523Z,29.20
2018-07-26T22:07:42.938Z,29.10
2018-07-26T22:10:11.063Z,29.10
2018-07-26T22:15:07.706Z,28.90
2018-07-26T22:17:35.766Z,28.80
2018-07-26T22:20:04.331Z,28.60
2018-07-26T22:22:32.814Z,28.50
2018-07-26T22:25:00.905Z,28.50
2018-07-26T22:27:28.974Z,28.50
2018-07-26T22:29:57.070Z,28.50
2018-07-26T22:32:25.196Z,28.50
2018-07-26T22:34:53.257Z,28.40
2018-07-26T22:37:21.749Z,28.40
2018-07-26T22:39:49.822Z,28.40
2018-07-26T22:42:17.894Z,28.50
2018-07-26T22:44:45.995Z,28.40
2018-07-26T22:47:14.074Z,28.50
2018-07-26T22:52:10.406Z,28.40
2018-07-26T22:54:38.457Z,28.30
2018-07-26T22:57:06.581Z,28.10
2018-07-26T23:02:02.870Z,28.00
2018-07-26T23:04:30.959Z,27.90
2018-07-26T23:06:59.330Z,27.80
2018-07-26T23:09:27.406Z,27.80
2018-07-26T23:11:55.490Z,27.70
2018-07-26T23:14:23.595Z,27.60
2018-07-26T23:16:51.695Z,27.60
2018-07-26T23:19:19.827Z,27.60
2018-07-26T23:21:48.168Z,27.60
2018-07-26T23:24:16.271Z,27.60
2018-07-26T23:26:44.383Z,27.60
2018-07-26T23:29:12.461Z,27.60
2018-07-26T23:31:40.631Z,27.50
2018-07-26T23:34:08.703Z,27.60
2018-07-26T23:36:37.114Z,27.60
2018-07-26T23:39:07.284Z,27.60
2018-07-26T23:41:35.355Z,27.60
2018-07-26T23:46:31.693Z,27.60
2018-07-26T23:48:59.782Z,27.60
2018-07-26T23:51:27.881Z,27.60
2018-07-26T23:53:56.063Z,27.60
2018-07-26T23:56:24.154Z,27.60
2018-07-26T23:58:52.524Z,27.60
